sensor_id;sensor_type;location;lat;lon;timestamp;temperature;humidity
18450;DHT22;9354;50.194;7.690;2023-02-20T00:01:01;7.60;99.90
18450;DHT22;9354;50.194;7.690;2023-02-20T00:03:29;7.60;99.90
18450;DHT22;9354;50.194;7.690;2023-02-20T00:05:57;7.50;99.90
18450;DHT22;9354;50.194;7.690;2023-02-20T00:08:24;7.50;99.90
18450;DHT22;9354;50.194;7.690;2023-02-20T00:10:51;7.40;99.90
18450;DHT22;9354;50.194;7.690;2023-02-20T00:13:19;7.40;99.90
18450;DHT22;9354;50.194;7.690;2023-02-20T00:15:47;7.40;99.90
18450;DHT22;9354;50.194;7.690;2023-02-20T00:18:15;7.30;99.90
18450;DHT22;9354;50.194;7.690;2023-02-20T00:20:42;7.30;99.90
18450;DHT22;9354;50.194;7.690;2023-02-20T00:23:11;7.20;99.90
18450;DHT22;9354;50.194;7.690;2023-02-20T00:25:38;7.20;99.90
18450;DHT22;9354;50.194;7.690;2023-02-20T00:28:06;7.20;99.90
18450;DHT22;9354;50.194;7.690;2023-02-20T00:30:33;7.20;99.90
18450;DHT22;9354;50.194;7.690;2023-02-20T00:33:02;7.20;99.90
18450;DHT22;9354;50.194;7.690;2023-02-20T00:35:29;7.20;99.90
18450;DHT22;9354;50.194;7.690;2023-02-20T00:37:56;7.10;99.90
18450;DHT22;9354;50.194;7.690;2023-02-20T00:40:24;7.10;99.90
18450;DHT22;9354;50.194;7.690;2023-02-20T00:42:52;7.10;99.90
18450;DHT22;9354;50.194;7.690;2023-02-20T00:45:20;7.00;99.90
18450;DHT22;9354;50.194;7.690;2023-02-20T00:47:47;7.00;99.90
18450;DHT22;9354;50.194;7.690;2023-02-20T00:50:16;7.00;99.90
18450;DHT22;9354;50.194;7.690;2023-02-20T00:52:44;7.00;99.90
18450;DHT22;9354;50.194;7.690;2023-02-20T00:55:12;7.00;99.90
18450;DHT22;9354;50.194;7.690;2023-02-20T00:57:39;7.00;99.90
18450;DHT22;9354;50.194;7.690;2023-02-20T01:00:11;6.90;99.90
18450;DHT22;9354;50.194;7.690;2023-02-20T01:02:42;6.90;99.90
18450;DHT22;9354;50.194;7.690;2023-02-20T01:05:10;6.90;99.90
18450;DHT22;9354;50.194;7.690;2023-02-20T01:07:38;6.90;99.90
18450;DHT22;9354;50.194;7.690;2023-02-20T01:10:06;6.90;99.90
18450;DHT22;9354;50.194;7.690;2023-02-20T01:12:34;6.90;99.90
18450;DHT22;9354;50.194;7.690;2023-02-20T01:15:01;6.90;99.90
18450;DHT22;9354;50.194;7.690;2023-02-20T01:17:29;6.80;99.90
18450;DHT22;9354;50.194;7.690;2023-02-20T01:19:56;6.80;99.90
18450;DHT22;9354;50.194;7.690;2023-02-20T01:22:24;6.80;99.90
18450;DHT22;9354;50.194;7.690;2023-02-20T01:24:52;6.80;99.90
18450;DHT22;9354;50.194;7.690;2023-02-20T01:27:19;6.80;99.90
18450;DHT22;9354;50.194;7.690;2023-02-20T01:29:47;6.80;99.90
18450;DHT22;9354;50.194;7.690;2023-02-20T01:32:14;6.70;99.90
18450;DHT22;9354;50.194;7.690;2023-02-20T01:34:41;6.70;99.90
18450;DHT22;9354;50.194;7.690;2023-02-20T01:37:11;6.70;99.90
18450;DHT22;9354;50.194;7.690;2023-02-20T01:39:39;6.70;99.90
18450;DHT22;9354;50.194;7.690;2023-02-20T01:42:17;6.70;99.90
18450;DHT22;9354;50.194;7.690;2023-02-20T01:45:16;6.70;99.90
18450;DHT22;9354;50.194;7.690;2023-02-20T01:47:45;6.60;99.90
18450;DHT22;9354;50.194;7.690;2023-02-20T01:50:13;6.60;99.90
18450;DHT22;9354;50.194;7.690;2023-02-20T01:52:43;6.60;99.90
18450;DHT22;9354;50.194;7.690;2023-02-20T01:55:16;6.60;99.90
18450;DHT22;9354;50.194;7.690;2023-02-20T01:57:51;6.60;99.90
18450;DHT22;9354;50.194;7.690;2023-02-20T02:00:21;6.60;99.90
18450;DHT22;9354;50.194;7.690;2023-02-20T02:02:54;6.60;99.90
18450;DHT22;9354;50.194;7.690;2023-02-20T02:05:22;6.60;99.90
18450;DHT22;9354;50.194;7.690;2023-02-20T02:07:51;6.50;99.90
18450;DHT22;9354;50.194;7.690;2023-02-20T02:10:23;6.50;99.90
18450;DHT22;9354;50.194;7.690;2023-02-20T02:12:53;6.50;99.90
18450;DHT22;9354;50.194;7.690;2023-02-20T02:15:22;6.50;99.90
18450;DHT22;9354;50.194;7.690;2023-02-20T02:27:16;6.50;99.90
18450;DHT22;9354;50.194;7.690;2023-02-20T02:36:54;6.50;99.90
18450;DHT22;9354;50.194;7.690;2023-02-20T02:39:32;6.50;99.90
18450;DHT22;9354;50.194;7.690;2023-02-20T02:42:08;6.50;99.90
18450;DHT22;9354;50.194;7.690;2023-02-20T02:44:45;6.50;99.90
18450;DHT22;9354;50.194;7.690;2023-02-20T02:47:19;6.50;99.90
18450;DHT22;9354;50.194;7.690;2023-02-20T02:49:52;6.50;99.90
18450;DHT22;9354;50.194;7.690;2023-02-20T02:52:23;6.50;99.90
18450;DHT22;9354;50.194;7.690;2023-02-20T02:55:12;6.50;99.90
18450;DHT22;9354;50.194;7.690;2023-02-20T02:57:40;6.50;99.90
18450;DHT22;9354;50.194;7.690;2023-02-20T03:00:10;6.50;99.90
18450;DHT22;9354;50.194;7.690;2023-02-20T03:02:49;6.50;99.90
18450;DHT22;9354;50.194;7.690;2023-02-20T03:05:22;6.60;99.90
18450;DHT22;9354;50.194;7.690;2023-02-20T03:07:54;6.60;99.90
18450;DHT22;9354;50.194;7.690;2023-02-20T03:10:24;6.60;99.90
18450;DHT22;9354;50.194;7.690;2023-02-20T03:13:00;6.60;99.90
18450;DHT22;9354;50.194;7.690;2023-02-20T03:15:30;6.60;99.90
18450;DHT22;9354;50.194;7.690;2023-02-20T03:18:08;6.60;99.90
18450;DHT22;9354;50.194;7.690;2023-02-20T03:20:40;6.70;99.90
18450;DHT22;9354;50.194;7.690;2023-02-20T03:23:11;6.60;99.90
18450;DHT22;9354;50.194;7.690;2023-02-20T03:25:45;6.60;99.90
18450;DHT22;9354;50.194;7.690;2023-02-20T03:28:17;6.60;99.90
18450;DHT22;9354;50.194;7.690;2023-02-20T03:30:49;6.60;99.90
18450;DHT22;9354;50.194;7.690;2023-02-20T03:33:21;6.60;99.90
18450;DHT22;9354;50.194;7.690;2023-02-20T03:36:12;6.60;99.90
18450;DHT22;9354;50.194;7.690;2023-02-20T03:39:03;6.60;99.90
18450;DHT22;9354;50.194;7.690;2023-02-20T03:41:50;6.60;99.90
18450;DHT22;9354;50.194;7.690;2023-02-20T03:44:36;6.60;99.90
18450;DHT22;9354;50.194;7.690;2023-02-20T03:47:06;6.50;99.90
18450;DHT22;9354;50.194;7.690;2023-02-20T03:49:38;6.50;99.90
18450;DHT22;9354;50.194;7.690;2023-02-20T03:52:06;6.50;99.90
18450;DHT22;9354;50.194;7.690;2023-02-20T03:54:35;6.50;99.90
18450;DHT22;9354;50.194;7.690;2023-02-20T03:57:05;6.50;99.90
18450;DHT22;9354;50.194;7.690;2023-02-20T03:59:37;6.50;99.90
18450;DHT22;9354;50.194;7.690;2023-02-20T04:02:10;6.40;99.90
18450;DHT22;9354;50.194;7.690;2023-02-20T04:04:44;6.40;99.90
18450;DHT22;9354;50.194;7.690;2023-02-20T04:07:17;6.40;99.90
18450;DHT22;9354;50.194;7.690;2023-02-20T04:09:46;6.30;99.90
18450;DHT22;9354;50.194;7.690;2023-02-20T04:12:18;6.30;99.90
18450;DHT22;9354;50.194;7.690;2023-02-20T04:14:49;6.30;99.90
18450;DHT22;9354;50.194;7.690;2023-02-20T04:17:21;6.30;99.90
18450;DHT22;9354;50.194;7.690;2023-02-20T04:19:48;6.20;99.90
18450;DHT22;9354;50.194;7.690;2023-02-20T04:22:19;6.20;99.90
18450;DHT22;9354;50.194;7.690;2023-02-20T04:24:54;6.20;99.90
18450;DHT22;9354;50.194;7.690;2023-02-20T04:27:22;6.20;99.90
18450;DHT22;9354;50.194;7.690;2023-02-20T04:29:49;6.20;99.90
18450;DHT22;9354;50.194;7.690;2023-02-20T04:32:17;6.20;99.90
18450;DHT22;9354;50.194;7.690;2023-02-20T04:34:44;6.20;99.90
18450;DHT22;9354;50.194;7.690;2023-02-20T04:37:14;6.20;99.90
18450;DHT22;9354;50.194;7.690;2023-02-20T04:39:42;6.20;99.90
18450;DHT22;9354;50.194;7.690;2023-02-20T04:42:11;6.20;99.90
18450;DHT22;9354;50.194;7.690;2023-02-20T04:44:39;6.20;99.90
18450;DHT22;9354;50.194;7.690;2023-02-20T04:47:11;6.20;99.90
18450;DHT22;9354;50.194;7.690;2023-02-20T04:49:39;6.20;99.90
18450;DHT22;9354;50.194;7.690;2023-02-20T04:52:07;6.20;99.90
18450;DHT22;9354;50.194;7.690;2023-02-20T04:54:35;6.20;99.90
18450;DHT22;9354;50.194;7.690;2023-02-20T04:57:02;6.20;99.90
18450;DHT22;9354;50.194;7.690;2023-02-20T04:59:31;6.20;99.90
18450;DHT22;9354;50.194;7.690;2023-02-20T05:01:58;6.20;99.90
18450;DHT22;9354;50.194;7.690;2023-02-20T05:04:27;6.20;99.90
18450;DHT22;9354;50.194;7.690;2023-02-20T05:06:55;6.20;99.90
18450;DHT22;9354;50.194;7.690;2023-02-20T05:09:23;6.20;99.90
18450;DHT22;9354;50.194;7.690;2023-02-20T05:11:51;6.20;99.90
18450;DHT22;9354;50.194;7.690;2023-02-20T05:14:18;6.10;99.90
18450;DHT22;9354;50.194;7.690;2023-02-20T05:16:47;6.20;99.90
18450;DHT22;9354;50.194;7.690;2023-02-20T05:19:16;6.20;99.90
18450;DHT22;9354;50.194;7.690;2023-02-20T05:21:45;6.20;99.90
18450;DHT22;9354;50.194;7.690;2023-02-20T05:24:30;6.20;99.90
18450;DHT22;9354;50.194;7.690;2023-02-20T05:26:58;6.20;99.90
18450;DHT22;9354;50.194;7.690;2023-02-20T05:29:25;6.20;99.90
18450;DHT22;9354;50.194;7.690;2023-02-20T05:31:54;6.20;99.90
18450;DHT22;9354;50.194;7.690;2023-02-20T05:34:21;6.20;99.90
18450;DHT22;9354;50.194;7.690;2023-02-20T05:36:50;6.20;99.90
18450;DHT22;9354;50.194;7.690;2023-02-20T05:39:18;6.20;99.90
18450;DHT22;9354;50.194;7.690;2023-02-20T05:41:45;6.20;99.90
18450;DHT22;9354;50.194;7.690;2023-02-20T05:44:14;6.20;99.90
18450;DHT22;9354;50.194;7.690;2023-02-20T05:46:41;6.20;99.90
18450;DHT22;9354;50.194;7.690;2023-02-20T05:49:11;6.20;99.90
18450;DHT22;9354;50.194;7.690;2023-02-20T05:51:38;6.20;99.90
18450;DHT22;9354;50.194;7.690;2023-02-20T05:54:06;6.20;99.90
18450;DHT22;9354;50.194;7.690;2023-02-20T05:56:33;6.20;99.90
18450;DHT22;9354;50.194;7.690;2023-02-20T05:59:00;6.20;99.90
18450;DHT22;9354;50.194;7.690;2023-02-20T06:01:30;6.20;99.90
18450;DHT22;9354;50.194;7.690;2023-02-20T06:03:58;6.20;99.90
18450;DHT22;9354;50.194;7.690;2023-02-20T06:06:32;6.20;99.90
18450;DHT22;9354;50.194;7.690;2023-02-20T06:09:00;6.20;99.90
18450;DHT22;9354;50.194;7.690;2023-02-20T06:11:27;6.20;99.90
18450;DHT22;9354;50.194;7.690;2023-02-20T06:13:54;6.20;99.90
18450;DHT22;9354;50.194;7.690;2023-02-20T06:16:23;6.20;99.90
18450;DHT22;9354;50.194;7.690;2023-02-20T06:18:52;6.20;99.90
18450;DHT22;9354;50.194;7.690;2023-02-20T06:21:20;6.20;99.90
18450;DHT22;9354;50.194;7.690;2023-02-20T06:23:50;6.20;99.90
18450;DHT22;9354;50.194;7.690;2023-02-20T06:26:18;6.20;99.90
18450;DHT22;9354;50.194;7.690;2023-02-20T06:28:46;6.20;99.90
18450;DHT22;9354;50.194;7.690;2023-02-20T06:31:20;6.20;99.90
18450;DHT22;9354;50.194;7.690;2023-02-20T06:33:48;6.20;99.90
18450;DHT22;9354;50.194;7.690;2023-02-20T06:36:21;6.20;99.90
18450;DHT22;9354;50.194;7.690;2023-02-20T06:38:50;6.30;99.90
18450;DHT22;9354;50.194;7.690;2023-02-20T06:41:18;6.30;99.90
18450;DHT22;9354;50.194;7.690;2023-02-20T06:43:45;6.30;99.90
18450;DHT22;9354;50.194;7.690;2023-02-20T06:46:13;6.30;99.90
18450;DHT22;9354;50.194;7.690;2023-02-20T06:48:44;6.30;99.90
18450;DHT22;9354;50.194;7.690;2023-02-20T06:51:11;6.30;99.90
18450;DHT22;9354;50.194;7.690;2023-02-20T06:53:39;6.40;99.90
18450;DHT22;9354;50.194;7.690;2023-02-20T06:56:09;6.40;99.90
18450;DHT22;9354;50.194;7.690;2023-02-20T06:58:37;6.40;99.90
18450;DHT22;9354;50.194;7.690;2023-02-20T07:01:04;6.40;99.90
18450;DHT22;9354;50.194;7.690;2023-02-20T07:03:32;6.40;99.90
18450;DHT22;9354;50.194;7.690;2023-02-20T07:05:59;6.40;99.90
18450;DHT22;9354;50.194;7.690;2023-02-20T07:08:26;6.40;99.90
18450;DHT22;9354;50.194;7.690;2023-02-20T07:10:54;6.50;99.90
18450;DHT22;9354;50.194;7.690;2023-02-20T07:13:22;6.50;99.90
18450;DHT22;9354;50.194;7.690;2023-02-20T07:15:50;6.50;99.90
18450;DHT22;9354;50.194;7.690;2023-02-20T07:18:17;6.50;99.90
18450;DHT22;9354;50.194;7.690;2023-02-20T07:20:49;6.60;99.90
18450;DHT22;9354;50.194;7.690;2023-02-20T07:23:17;6.70;99.90
18450;DHT22;9354;50.194;7.690;2023-02-20T07:25:44;6.80;99.90
18450;DHT22;9354;50.194;7.690;2023-02-20T07:28:13;7.00;99.90
18450;DHT22;9354;50.194;7.690;2023-02-20T07:30:41;7.00;99.90
18450;DHT22;9354;50.194;7.690;2023-02-20T07:33:09;7.20;99.90
18450;DHT22;9354;50.194;7.690;2023-02-20T07:35:37;7.30;99.90
18450;DHT22;9354;50.194;7.690;2023-02-20T07:38:04;7.40;99.90
18450;DHT22;9354;50.194;7.690;2023-02-20T07:40:31;7.50;99.90
18450;DHT22;9354;50.194;7.690;2023-02-20T07:42:59;7.50;99.90
18450;DHT22;9354;50.194;7.690;2023-02-20T07:45:26;7.50;99.90
18450;DHT22;9354;50.194;7.690;2023-02-20T07:47:55;7.60;99.90
18450;DHT22;9354;50.194;7.690;2023-02-20T07:50:22;7.50;99.90
18450;DHT22;9354;50.194;7.690;2023-02-20T07:52:50;7.50;99.90
18450;DHT22;9354;50.194;7.690;2023-02-20T07:55:18;7.50;99.90
18450;DHT22;9354;50.194;7.690;2023-02-20T07:57:46;7.40;99.90
18450;DHT22;9354;50.194;7.690;2023-02-20T08:00:16;7.50;99.90
18450;DHT22;9354;50.194;7.690;2023-02-20T08:02:44;7.50;99.90
18450;DHT22;9354;50.194;7.690;2023-02-20T08:05:14;7.50;99.90
18450;DHT22;9354;50.194;7.690;2023-02-20T08:07:43;7.50;99.90
18450;DHT22;9354;50.194;7.690;2023-02-20T08:10:13;7.50;99.90
18450;DHT22;9354;50.194;7.690;2023-02-20T08:12:40;7.50;99.90
18450;DHT22;9354;50.194;7.690;2023-02-20T08:15:08;7.50;99.90
18450;DHT22;9354;50.194;7.690;2023-02-20T08:17:37;7.50;99.90
18450;DHT22;9354;50.194;7.690;2023-02-20T08:20:05;7.50;99.90
18450;DHT22;9354;50.194;7.690;2023-02-20T08:22:34;7.50;99.90
18450;DHT22;9354;50.194;7.690;2023-02-20T08:25:02;7.50;99.90
18450;DHT22;9354;50.194;7.690;2023-02-20T08:27:32;7.50;99.90
18450;DHT22;9354;50.194;7.690;2023-02-20T08:30:04;7.40;99.90
18450;DHT22;9354;50.194;7.690;2023-02-20T08:32:32;7.50;99.90
18450;DHT22;9354;50.194;7.690;2023-02-20T08:34:59;7.50;99.90
18450;DHT22;9354;50.194;7.690;2023-02-20T08:37:27;7.60;99.90
18450;DHT22;9354;50.194;7.690;2023-02-20T08:39:57;7.60;99.90
18450;DHT22;9354;50.194;7.690;2023-02-20T08:42:25;7.60;99.90
18450;DHT22;9354;50.194;7.690;2023-02-20T08:44:52;7.60;99.90
18450;DHT22;9354;50.194;7.690;2023-02-20T08:47:20;7.70;99.90
18450;DHT22;9354;50.194;7.690;2023-02-20T08:49:48;7.70;99.90
18450;DHT22;9354;50.194;7.690;2023-02-20T08:52:16;7.80;99.90
18450;DHT22;9354;50.194;7.690;2023-02-20T08:54:44;7.90;99.90
18450;DHT22;9354;50.194;7.690;2023-02-20T08:57:13;8.10;99.90
18450;DHT22;9354;50.194;7.690;2023-02-20T08:59:40;8.30;99.90
18450;DHT22;9354;50.194;7.690;2023-02-20T09:02:15;8.60;99.90
18450;DHT22;9354;50.194;7.690;2023-02-20T09:04:43;8.90;99.90
18450;DHT22;9354;50.194;7.690;2023-02-20T09:07:11;9.00;99.90
18450;DHT22;9354;50.194;7.690;2023-02-20T09:09:39;9.20;99.90
18450;DHT22;9354;50.194;7.690;2023-02-20T09:12:07;9.30;99.90
18450;DHT22;9354;50.194;7.690;2023-02-20T09:14:36;9.40;99.90
18450;DHT22;9354;50.194;7.690;2023-02-20T09:17:04;9.60;99.90
18450;DHT22;9354;50.194;7.690;2023-02-20T09:19:32;9.80;99.90
18450;DHT22;9354;50.194;7.690;2023-02-20T09:21:59;10.00;99.90
18450;DHT22;9354;50.194;7.690;2023-02-20T09:24:27;10.30;99.90
18450;DHT22;9354;50.194;7.690;2023-02-20T09:26:59;10.60;99.90
18450;DHT22;9354;50.194;7.690;2023-02-20T09:29:27;10.80;99.90
18450;DHT22;9354;50.194;7.690;2023-02-20T09:31:56;11.00;99.90
18450;DHT22;9354;50.194;7.690;2023-02-20T09:34:23;11.20;99.90
18450;DHT22;9354;50.194;7.690;2023-02-20T09:36:51;11.40;99.90
18450;DHT22;9354;50.194;7.690;2023-02-20T09:39:18;11.40;99.90
18450;DHT22;9354;50.194;7.690;2023-02-20T09:41:59;11.30;99.90
18450;DHT22;9354;50.194;7.690;2023-02-20T09:44:34;11.40;99.90
18450;DHT22;9354;50.194;7.690;2023-02-20T09:47:19;11.30;99.90
18450;DHT22;9354;50.194;7.690;2023-02-20T09:49:49;11.30;99.90
18450;DHT22;9354;50.194;7.690;2023-02-20T09:52:18;11.40;99.90
18450;DHT22;9354;50.194;7.690;2023-02-20T09:54:49;11.60;99.90
18450;DHT22;9354;50.194;7.690;2023-02-20T09:57:22;11.80;99.90
18450;DHT22;9354;50.194;7.690;2023-02-20T09:59:53;12.00;99.90
18450;DHT22;9354;50.194;7.690;2023-02-20T10:02:27;12.00;99.90
18450;DHT22;9354;50.194;7.690;2023-02-20T10:04:57;11.90;99.90
18450;DHT22;9354;50.194;7.690;2023-02-20T10:07:29;11.90;99.90
18450;DHT22;9354;50.194;7.690;2023-02-20T10:09:59;11.90;99.90
18450;DHT22;9354;50.194;7.690;2023-02-20T10:12:31;11.90;99.90
18450;DHT22;9354;50.194;7.690;2023-02-20T10:15:14;11.80;99.90
18450;DHT22;9354;50.194;7.690;2023-02-20T10:17:53;11.70;99.90
18450;DHT22;9354;50.194;7.690;2023-02-20T10:20:30;11.60;99.90
18450;DHT22;9354;50.194;7.690;2023-02-20T10:23:19;11.50;99.90
18450;DHT22;9354;50.194;7.690;2023-02-20T10:25:53;11.40;99.90
18450;DHT22;9354;50.194;7.690;2023-02-20T10:28:22;11.40;99.90
18450;DHT22;9354;50.194;7.690;2023-02-20T10:30:56;11.50;99.90
18450;DHT22;9354;50.194;7.690;2023-02-20T10:33:30;11.50;99.90
18450;DHT22;9354;50.194;7.690;2023-02-20T10:36:01;11.70;99.90
18450;DHT22;9354;50.194;7.690;2023-02-20T10:38:34;11.80;99.90
18450;DHT22;9354;50.194;7.690;2023-02-20T10:41:09;11.90;99.90
18450;DHT22;9354;50.194;7.690;2023-02-20T10:43:45;12.10;99.90
18450;DHT22;9354;50.194;7.690;2023-02-20T10:46:18;12.30;99.90
18450;DHT22;9354;50.194;7.690;2023-02-20T10:48:51;12.30;99.90
18450;DHT22;9354;50.194;7.690;2023-02-20T10:51:25;12.40;99.90
18450;DHT22;9354;50.194;7.690;2023-02-20T10:53:56;12.40;99.90
18450;DHT22;9354;50.194;7.690;2023-02-20T10:56:31;12.30;99.90
18450;DHT22;9354;50.194;7.690;2023-02-20T10:59:03;12.40;99.90
18450;DHT22;9354;50.194;7.690;2023-02-20T11:01:32;12.50;99.90
18450;DHT22;9354;50.194;7.690;2023-02-20T11:04:08;12.50;99.90
18450;DHT22;9354;50.194;7.690;2023-02-20T11:06:39;12.60;99.90
18450;DHT22;9354;50.194;7.690;2023-02-20T11:09:08;12.60;99.90
18450;DHT22;9354;50.194;7.690;2023-02-20T11:11:37;12.70;99.90
18450;DHT22;9354;50.194;7.690;2023-02-20T11:14:11;12.80;99.90
18450;DHT22;9354;50.194;7.690;2023-02-20T11:16:43;12.90;99.90
18450;DHT22;9354;50.194;7.690;2023-02-20T11:19:17;12.90;99.90
18450;DHT22;9354;50.194;7.690;2023-02-20T11:21:48;12.90;99.90
18450;DHT22;9354;50.194;7.690;2023-02-20T11:24:25;13.00;99.90
18450;DHT22;9354;50.194;7.690;2023-02-20T11:27:01;13.00;99.90
18450;DHT22;9354;50.194;7.690;2023-02-20T11:29:34;13.10;99.90
18450;DHT22;9354;50.194;7.690;2023-02-20T11:32:32;13.20;99.90
18450;DHT22;9354;50.194;7.690;2023-02-20T11:35:27;13.10;99.90
18450;DHT22;9354;50.194;7.690;2023-02-20T11:38:32;13.20;99.90
18450;DHT22;9354;50.194;7.690;2023-02-20T11:41:07;13.30;99.90
18450;DHT22;9354;50.194;7.690;2023-02-20T11:43:37;13.30;99.90
18450;DHT22;9354;50.194;7.690;2023-02-20T11:46:09;13.40;99.90
18450;DHT22;9354;50.194;7.690;2023-02-20T11:48:37;13.50;99.90
18450;DHT22;9354;50.194;7.690;2023-02-20T11:51:08;13.50;99.90
18450;DHT22;9354;50.194;7.690;2023-02-20T11:54:05;13.60;99.90
18450;DHT22;9354;50.194;7.690;2023-02-20T11:56:33;13.60;99.90
18450;DHT22;9354;50.194;7.690;2023-02-20T11:59:27;13.70;99.90
18450;DHT22;9354;50.194;7.690;2023-02-20T12:02:19;13.80;99.90
18450;DHT22;9354;50.194;7.690;2023-02-20T12:05:08;13.80;99.90
18450;DHT22;9354;50.194;7.690;2023-02-20T12:07:40;13.80;99.90
18450;DHT22;9354;50.194;7.690;2023-02-20T12:10:21;13.80;99.90
18450;DHT22;9354;50.194;7.690;2023-02-20T12:12:50;13.80;99.90
18450;DHT22;9354;50.194;7.690;2023-02-20T12:15:20;13.80;99.90
18450;DHT22;9354;50.194;7.690;2023-02-20T12:20:44;13.80;99.90
18450;DHT22;9354;50.194;7.690;2023-02-20T12:23:22;13.80;99.90
18450;DHT22;9354;50.194;7.690;2023-02-20T12:26:04;13.70;99.90
18450;DHT22;9354;50.194;7.690;2023-02-20T12:28:45;13.70;99.90
18450;DHT22;9354;50.194;7.690;2023-02-20T12:31:23;13.70;99.90
18450;DHT22;9354;50.194;7.690;2023-02-20T12:34:09;13.80;99.90
18450;DHT22;9354;50.194;7.690;2023-02-20T12:36:40;13.80;99.90
18450;DHT22;9354;50.194;7.690;2023-02-20T12:39:18;13.80;99.90
18450;DHT22;9354;50.194;7.690;2023-02-20T12:41:52;13.80;99.90
18450;DHT22;9354;50.194;7.690;2023-02-20T12:44:42;13.90;99.90
18450;DHT22;9354;50.194;7.690;2023-02-20T12:47:20;13.90;99.90
18450;DHT22;9354;50.194;7.690;2023-02-20T12:50:10;13.90;99.90
18450;DHT22;9354;50.194;7.690;2023-02-20T12:52:59;14.00;99.90
18450;DHT22;9354;50.194;7.690;2023-02-20T12:55:32;14.10;99.90
18450;DHT22;9354;50.194;7.690;2023-02-20T12:58:13;14.20;99.90
18450;DHT22;9354;50.194;7.690;2023-02-20T13:00:45;14.30;99.90
18450;DHT22;9354;50.194;7.690;2023-02-20T13:03:17;14.30;99.90
18450;DHT22;9354;50.194;7.690;2023-02-20T13:05:48;14.20;99.90
18450;DHT22;9354;50.194;7.690;2023-02-20T13:08:21;14.10;99.90
18450;DHT22;9354;50.194;7.690;2023-02-20T13:10:56;14.10;99.90
18450;DHT22;9354;50.194;7.690;2023-02-20T13:13:26;14.00;99.90
18450;DHT22;9354;50.194;7.690;2023-02-20T13:15:59;14.10;99.90
18450;DHT22;9354;50.194;7.690;2023-02-20T13:18:35;14.10;99.90
18450;DHT22;9354;50.194;7.690;2023-02-20T13:21:10;14.10;99.90
18450;DHT22;9354;50.194;7.690;2023-02-20T13:23:38;14.20;99.90
18450;DHT22;9354;50.194;7.690;2023-02-20T13:29:13;14.40;99.90
18450;DHT22;9354;50.194;7.690;2023-02-20T13:31:45;14.40;99.90
18450;DHT22;9354;50.194;7.690;2023-02-20T13:34:35;14.50;99.90
18450;DHT22;9354;50.194;7.690;2023-02-20T13:37:03;14.60;99.90
18450;DHT22;9354;50.194;7.690;2023-02-20T13:39:39;14.70;99.90
18450;DHT22;9354;50.194;7.690;2023-02-20T13:42:32;14.80;99.90
18450;DHT22;9354;50.194;7.690;2023-02-20T13:45:01;14.80;99.90
18450;DHT22;9354;50.194;7.690;2023-02-20T13:47:48;14.80;99.90
18450;DHT22;9354;50.194;7.690;2023-02-20T13:50:32;14.70;99.90
18450;DHT22;9354;50.194;7.690;2023-02-20T13:53:02;14.60;99.90
18450;DHT22;9354;50.194;7.690;2023-02-20T13:55:29;14.60;99.90
18450;DHT22;9354;50.194;7.690;2023-02-20T13:58:03;14.60;99.90
18450;DHT22;9354;50.194;7.690;2023-02-20T14:00:43;14.70;99.90
18450;DHT22;9354;50.194;7.690;2023-02-20T14:03:16;14.70;99.90
18450;DHT22;9354;50.194;7.690;2023-02-20T14:05:44;14.60;99.90
18450;DHT22;9354;50.194;7.690;2023-02-20T14:08:16;14.60;99.90
18450;DHT22;9354;50.194;7.690;2023-02-20T14:10:44;14.60;99.90
18450;DHT22;9354;50.194;7.690;2023-02-20T14:13:17;14.60;99.90
18450;DHT22;9354;50.194;7.690;2023-02-20T14:15:49;14.50;99.90
18450;DHT22;9354;50.194;7.690;2023-02-20T14:18:19;14.50;99.90
18450;DHT22;9354;50.194;7.690;2023-02-20T14:20:48;14.60;99.90
18450;DHT22;9354;50.194;7.690;2023-02-20T14:23:20;14.70;99.90
18450;DHT22;9354;50.194;7.690;2023-02-20T14:25:52;14.80;99.90
18450;DHT22;9354;50.194;7.690;2023-02-20T14:28:20;14.80;99.90
18450;DHT22;9354;50.194;7.690;2023-02-20T14:31:03;14.80;99.90
18450;DHT22;9354;50.194;7.690;2023-02-20T14:33:31;14.90;99.90
18450;DHT22;9354;50.194;7.690;2023-02-20T14:36:10;14.90;99.90
18450;DHT22;9354;50.194;7.690;2023-02-20T14:38:51;14.80;99.90
18450;DHT22;9354;50.194;7.690;2023-02-20T14:41:23;14.70;99.90
18450;DHT22;9354;50.194;7.690;2023-02-20T14:43:55;14.60;99.90
18450;DHT22;9354;50.194;7.690;2023-02-20T14:46:27;14.50;99.90
18450;DHT22;9354;50.194;7.690;2023-02-20T14:49:11;14.30;99.90
18450;DHT22;9354;50.194;7.690;2023-02-20T14:51:39;14.10;99.90
18450;DHT22;9354;50.194;7.690;2023-02-20T14:54:16;13.90;99.90
18450;DHT22;9354;50.194;7.690;2023-02-20T14:56:44;13.70;99.90
18450;DHT22;9354;50.194;7.690;2023-02-20T14:59:21;13.50;99.90
18450;DHT22;9354;50.194;7.690;2023-02-20T15:01:50;13.30;99.90
18450;DHT22;9354;50.194;7.690;2023-02-20T15:04:18;13.10;99.90
18450;DHT22;9354;50.194;7.690;2023-02-20T15:06:49;13.00;99.90
18450;DHT22;9354;50.194;7.690;2023-02-20T15:09:19;13.00;99.90
18450;DHT22;9354;50.194;7.690;2023-02-20T15:11:49;12.90;99.90
18450;DHT22;9354;50.194;7.690;2023-02-20T15:14:20;12.80;99.90
18450;DHT22;9354;50.194;7.690;2023-02-20T15:19:35;12.70;99.90
18450;DHT22;9354;50.194;7.690;2023-02-20T15:22:04;12.60;99.90
18450;DHT22;9354;50.194;7.690;2023-02-20T15:24:37;12.50;99.90
18450;DHT22;9354;50.194;7.690;2023-02-20T15:27:13;12.50;99.90
18450;DHT22;9354;50.194;7.690;2023-02-20T15:29:42;12.40;99.90
18450;DHT22;9354;50.194;7.690;2023-02-20T15:32:17;12.30;99.90
18450;DHT22;9354;50.194;7.690;2023-02-20T15:34:52;12.30;99.90
18450;DHT22;9354;50.194;7.690;2023-02-20T15:37:24;12.30;99.90
18450;DHT22;9354;50.194;7.690;2023-02-20T15:39:51;12.20;99.90
18450;DHT22;9354;50.194;7.690;2023-02-20T15:42:21;12.20;99.90
18450;DHT22;9354;50.194;7.690;2023-02-20T15:44:49;12.20;99.90
18450;DHT22;9354;50.194;7.690;2023-02-20T15:47:18;12.10;99.90
18450;DHT22;9354;50.194;7.690;2023-02-20T15:49:45;12.10;99.90
18450;DHT22;9354;50.194;7.690;2023-02-20T15:52:17;12.10;99.90
18450;DHT22;9354;50.194;7.690;2023-02-20T15:54:50;12.00;99.90
18450;DHT22;9354;50.194;7.690;2023-02-20T15:57:19;12.00;99.90
18450;DHT22;9354;50.194;7.690;2023-02-20T15:59:46;12.00;99.90
18450;DHT22;9354;50.194;7.690;2023-02-20T16:02:16;11.90;99.90
18450;DHT22;9354;50.194;7.690;2023-02-20T16:04:45;11.90;99.90
18450;DHT22;9354;50.194;7.690;2023-02-20T16:07:16;11.90;99.90
18450;DHT22;9354;50.194;7.690;2023-02-20T16:09:44;11.80;99.90
18450;DHT22;9354;50.194;7.690;2023-02-20T16:12:15;11.80;99.90
18450;DHT22;9354;50.194;7.690;2023-02-20T16:14:43;11.70;99.90
18450;DHT22;9354;50.194;7.690;2023-02-20T16:17:17;11.70;99.90
18450;DHT22;9354;50.194;7.690;2023-02-20T16:19:46;11.70;99.90
18450;DHT22;9354;50.194;7.690;2023-02-20T16:22:15;11.60;99.90
18450;DHT22;9354;50.194;7.690;2023-02-20T16:24:43;11.60;99.90
18450;DHT22;9354;50.194;7.690;2023-02-20T16:27:16;11.60;99.90
18450;DHT22;9354;50.194;7.690;2023-02-20T16:29:45;11.50;99.90
18450;DHT22;9354;50.194;7.690;2023-02-20T16:32:18;11.50;99.90
18450;DHT22;9354;50.194;7.690;2023-02-20T16:34:46;11.40;99.90
18450;DHT22;9354;50.194;7.690;2023-02-20T16:37:16;11.40;99.90
18450;DHT22;9354;50.194;7.690;2023-02-20T16:39:43;11.40;99.90
18450;DHT22;9354;50.194;7.690;2023-02-20T16:42:23;11.30;99.90
18450;DHT22;9354;50.194;7.690;2023-02-20T16:44:51;11.30;99.90
18450;DHT22;9354;50.194;7.690;2023-02-20T16:47:21;11.30;99.90